Chegutu, Zimbabwe
Current Conditions -  °F | °C
As of 12:00 AM on Saturday 20 Dec 2014 (Local Time) from FVHA Reporting Station
Broken Clouds Broken Clouds  
Wind Chill: 66°   Ceiling: 8000
Heat Index: 66°   Visibility: 6mi
Dew Point: 66°   Wind: 0mph
Humidity: 100%   Direction: NA
Pressure: 30.18"   Gusts: NA
Location:  18.13°S, 30.14°E
Report Text: FVHA 192200Z 00000KT 9999 FEW010 BKN080 19/19 Q1022 NOSIG
Loading
Personal Weather Stations






























Interactive Weather Map New forecast layout! Learn more

10-Day Weather Forecast

Advertisements
Track Severe Weather on mobile